Time;durP1;ratioP1;P1;durP2;ratioP2;P2;SDS_P1;SDS_P2;PMS_P1;PMS_P2;Temp;Humidity;BMP_temperature;BMP_pressure;BME280_temperature;BME280_humidity;BME280_pressure;Samples;Min_cycle;Max_cycle;Signal;HPM_P1;HPM_P2
2020/12/17 00:02:14;;;;;;;5.07;0.60;;;19.50;57.80;;;;;;5085072;28;20032;-44
2020/12/17 00:04:41;;;;;;;1.63;0.85;;;19.50;57.70;;;;;;5080577;28;20055;-45
2020/12/17 00:07:07;;;;;;;3.50;0.70;;;19.50;57.60;;;;;;5072030;28;20592;-45
2020/12/17 00:09:34;;;;;;;2.05;0.73;;;19.50;57.60;;;;;;5076556;28;20513;-48
2020/12/17 00:12:01;;;;;;;3.00;0.82;;;19.50;57.60;;;;;;5083007;28;20044;-46
2020/12/17 00:14:27;;;;;;;6.35;1.13;;;19.50;57.50;;;;;;5084662;28;20075;-43
2020/12/17 00:16:54;;;;;;;1.08;0.45;;;19.50;57.50;;;;;;5083878;28;20137;-43
2020/12/17 00:19:20;;;;;;;2.80;0.45;;;19.50;57.50;;;;;;5080353;28;20089;-47
2020/12/17 00:21:47;;;;;;;1.77;0.98;;;19.50;57.40;;;;;;5084081;28;20210;-43
2020/12/17 00:24:13;;;;;;;2.70;0.90;;;19.50;57.50;;;;;;5083897;28;20044;-45
2020/12/17 00:26:40;;;;;;;1.67;0.60;;;19.50;57.40;;;;;;5087436;28;20449;-48
2020/12/17 00:29:07;;;;;;;4.57;0.65;;;19.50;57.40;;;;;;5082270;28;20044;-43
2020/12/17 00:31:34;;;;;;;3.03;0.73;;;19.50;57.40;;;;;;5080606;28;20516;-45
2020/12/17 00:34:00;;;;;;;1.60;0.52;;;19.40;57.30;;;;;;5072458;28;20063;-50
2020/12/17 00:36:27;;;;;;;3.40;0.50;;;19.50;57.40;;;;;;5068374;28;20052;-43
2020/12/17 00:38:53;;;;;;;2.22;0.55;;;19.40;57.30;;;;;;5078992;28;20047;-43
2020/12/17 00:41:20;;;;;;;1.27;0.30;;;19.40;57.30;;;;;;5085811;28;20730;-43
2020/12/17 00:43:47;;;;;;;3.97;0.50;;;19.40;57.30;;;;;;5086370;28;20036;-43
2020/12/17 00:46:16;;;;;;;1.02;0.52;;;19.40;57.30;;;;;;5087058;28;20509;-44
2020/12/17 00:48:43;;;;;;;2.17;0.80;;;19.40;57.30;;;;;;5085110;28;20138;-49
2020/12/17 00:51:10;;;;;;;2.65;1.48;;;19.40;57.30;;;;;;5088942;28;20044;-43
2020/12/17 00:53:36;;;;;;;1.17;0.32;;;19.40;57.30;;;;;;5085016;28;20139;-44
2020/12/17 00:56:05;;;;;;;1.45;0.60;;;19.40;57.30;;;;;;5086021;28;20168;-45
2020/12/17 00:58:31;;;;;;;0.60;0.30;;;19.40;57.40;;;;;;5084112;28;20468;-45
2020/12/17 01:00:58;;;;;;;6.35;0.65;;;19.40;57.40;;;;;;5084749;28;20044;-43
2020/12/17 01:03:25;;;;;;;1.45;0.32;;;19.40;57.40;;;;;;5087522;28;20056;-43
2020/12/17 01:05:51;;;;;;;1.98;0.70;;;19.40;57.40;;;;;;5083437;28;20076;-43
2020/12/17 01:08:18;;;;;;;4.25;0.90;;;19.40;57.30;;;;;;5074425;28;20463;-49
2020/12/17 01:10:44;;;;;;;4.15;0.75;;;19.40;57.30;;;;;;5071764;28;20133;-43
2020/12/17 01:13:11;;;;;;;1.45;0.40;;;19.40;57.30;;;;;;5071142;28;20044;-46
2020/12/17 01:15:37;;;;;;;1.33;0.50;;;19.40;57.30;;;;;;5071030;28;20133;-49
2020/12/17 01:18:04;;;;;;;2.00;0.60;;;19.40;57.30;;;;;;5069250;28;20053;-43
2020/12/17 01:20:32;;;;;;;1.67;0.45;;;19.30;57.30;;;;;;5071729;28;20119;-43
2020/12/17 01:22:58;;;;;;;0.63;0.55;;;19.40;57.30;;;;;;5079418;28;20056;-48
2020/12/17 01:25:25;;;;;;;3.40;0.20;;;19.30;57.30;;;;;;5085221;28;20051;-47
2020/12/17 01:27:51;;;;;;;2.35;0.52;;;19.30;57.30;;;;;;5071591;28;20044;-43
2020/12/17 01:30:18;;;;;;;2.35;0.30;;;19.30;57.20;;;;;;5068675;28;20048;-47
2020/12/17 01:32:44;;;;;;;0.60;0.30;;;19.30;57.20;;;;;;5071595;28;20053;-43
2020/12/17 01:35:11;;;;;;;0.40;0.40;;;19.30;57.20;;;;;;5071165;28;20043;-44
2020/12/17 01:37:38;;;;;;;2.63;0.70;;;19.30;57.20;;;;;;5075779;28;20048;-43
2020/12/17 01:40:05;;;;;;;3.60;0.32;;;19.30;57.20;;;;;;5072962;28;23166;-43
2020/12/17 01:42:31;;;;;;;0.90;0.73;;;19.30;57.20;;;;;;5073915;28;20056;-43
2020/12/17 01:44:58;;;;;;;2.22;0.20;;;19.30;57.20;;;;;;5074638;28;20178;-45
2020/12/17 01:47:35;;;;;;;1.40;0.47;;;19.30;57.20;;;;;;5073466;28;20412;-42
2020/12/17 01:50:04;;;;;;;0.75;0.20;;;19.30;57.20;;;;;;5075618;28;20128;-43
2020/12/17 01:52:31;;;;;;;0.52;0.40;;;19.30;57.20;;;;;;5075405;28;20072;-44
2020/12/17 01:55:00;;;;;;;0.60;0.38;;;19.30;57.30;;;;;;5089459;28;20072;-46
2020/12/17 01:57:31;;;;;;;1.08;0.35;;;19.30;57.90;;;;;;5075609;28;20182;-43
2020/12/17 02:00:03;;;;;;;2.65;0.47;;;19.30;57.40;;;;;;5087190;28;20071;-44
2020/12/17 02:02:33;;;;;;;0.52;0.52;;;19.30;57.40;;;;;;5082604;28;20068;-43
2020/12/17 02:05:01;;;;;;;0.20;0.10;;;19.30;57.40;;;;;;5079682;28;20074;-43
2020/12/17 02:07:28;;;;;;;3.33;0.30;;;19.30;57.50;;;;;;5075100;28;20135;-44
2020/12/17 02:09:55;;;;;;;2.75;0.60;;;19.20;57.40;;;;;;5075156;28;20048;-42
2020/12/17 02:12:23;;;;;;;2.10;0.13;;;19.30;57.50;;;;;;5071776;28;20040;-43
2020/12/17 02:14:49;;;;;;;0.77;0.40;;;19.30;57.50;;;;;;5074999;28;20412;-46
2020/12/17 02:17:15;;;;;;;1.27;0.35;;;19.30;57.50;;;;;;5082125;28;20093;-46
2020/12/17 02:19:42;;;;;;;1.02;0.20;;;19.30;57.50;;;;;;5087331;28;20043;-42
2020/12/17 02:22:09;;;;;;;0.40;0.20;;;19.20;57.40;;;;;;5075198;28;20666;-42
2020/12/17 02:24:38;;;;;;;0.98;0.20;;;19.30;57.50;;;;;;5073753;28;20609;-46
2020/12/17 02:27:04;;;;;;;2.40;0.17;;;19.20;57.40;;;;;;5075708;28;20486;-43
2020/12/17 02:29:31;;;;;;;1.08;0.30;;;19.20;57.30;;;;;;5075009;28;20098;-48
2020/12/17 02:31:57;;;;;;;1.17;0.65;;;19.20;57.40;;;;;;5074018;28;20052;-42
2020/12/17 02:34:24;;;;;;;0.43;0.40;;;19.20;57.30;;;;;;5074538;28;20044;-43
2020/12/17 02:36:50;;;;;;;0.30;0.30;;;19.20;57.40;;;;;;5074641;28;20048;-45
2020/12/17 02:39:17;;;;;;;0.40;0.25;;;19.20;57.30;;;;;;5071568;28;20041;-46
2020/12/17 02:41:44;;;;;;;1.50;0.30;;;19.20;57.30;;;;;;5074971;28;20059;-46
2020/12/17 02:44:12;;;;;;;1.75;0.30;;;19.20;57.40;;;;;;5078514;28;20090;-43
2020/12/17 02:46:39;;;;;;;1.02;0.20;;;19.20;57.30;;;;;;5081450;28;20041;-45
2020/12/17 02:49:05;;;;;;;1.85;0.30;;;19.20;57.40;;;;;;5074770;28;20404;-48
2020/12/17 02:51:32;;;;;;;0.28;0.20;;;19.20;57.40;;;;;;5071946;28;20055;-46
2020/12/17 02:53:58;;;;;;;0.50;0.20;;;19.20;57.40;;;;;;5073430;28;20049;-47
2020/12/17 02:56:25;;;;;;;0.98;0.52;;;19.20;57.50;;;;;;5077557;28;20048;-42
2020/12/17 02:58:52;;;;;;;0.32;0.20;;;19.20;57.50;;;;;;5076273;28;20202;-43
2020/12/17 03:01:18;;;;;;;0.30;0.20;;;19.20;57.40;;;;;;5085254;28;20044;-43
2020/12/17 03:03:45;;;;;;;0.50;0.20;;;19.20;57.40;;;;;;5073939;28;20506;-49
2020/12/17 03:06:11;;;;;;;1.65;0.22;;;19.20;57.40;;;;;;5071893;28;20520;-42
2020/12/17 03:08:38;;;;;;;0.20;0.20;;;19.20;57.40;;;;;;5072390;28;20040;-49
2020/12/17 03:11:05;;;;;;;1.08;0.73;;;19.20;57.40;;;;;;5078445;28;20125;-43
2020/12/17 03:13:31;;;;;;;0.68;0.35;;;19.20;57.40;;;;;;5074024;28;20562;-44
2020/12/17 03:15:58;;;;;;;0.82;0.30;;;19.20;57.40;;;;;;5073955;28;20101;-46
2020/12/17 03:18:25;;;;;;;0.95;0.22;;;19.20;57.40;;;;;;5071479;28;20053;-47
2020/12/17 03:20:52;;;;;;;0.20;0.10;;;19.20;58.00;;;;;;5073200;28;20049;-45
2020/12/17 03:23:18;;;;;;;2.15;0.20;;;19.10;57.40;;;;;;5081487;28;20113;-45
2020/12/17 03:25:45;;;;;;;0.30;0.10;;;19.20;57.40;;;;;;5081796;28;20075;-49
2020/12/17 03:28:11;;;;;;;3.25;0.10;;;19.20;57.40;;;;;;5071546;28;20041;-44
2020/12/17 03:30:38;;;;;;;0.65;0.20;;;19.10;57.30;;;;;;5089001;28;20424;-51
2020/12/17 03:33:06;;;;;;;1.02;0.20;;;19.10;57.30;;;;;;5071596;28;20052;-44
2020/12/17 03:35:32;;;;;;;0.38;0.10;;;19.10;57.30;;;;;;5073062;28;20052;-47
2020/12/17 03:37:59;;;;;;;0.65;0.20;;;19.20;57.30;;;;;;5073720;28;20404;-44
2020/12/17 03:40:26;;;;;;;0.77;0.77;;;19.20;57.30;;;;;;5073865;28;20100;-44
2020/12/17 03:42:53;;;;;;;0.40;0.15;;;19.10;57.30;;;;;;5073683;28;20048;-49
2020/12/17 03:45:20;;;;;;;0.38;0.20;;;19.10;57.30;;;;;;5069959;28;20081;-44
2020/12/17 03:47:47;;;;;;;0.20;0.20;;;19.10;57.20;;;;;;5074942;28;20115;-45
2020/12/17 03:50:15;;;;;;;0.35;0.10;;;19.20;57.30;;;;;;5078395;28;20051;-43
2020/12/17 03:52:41;;;;;;;0.20;0.10;;;19.20;57.30;;;;;;5077394;28;20462;-44
2020/12/17 03:55:08;;;;;;;0.38;0.20;;;19.10;57.20;;;;;;5074760;28;20485;-43
2020/12/17 03:57:34;;;;;;;0.40;0.10;;;19.20;57.20;;;;;;5072870;28;20123;-43
2020/12/17 04:00:01;;;;;;;0.45;0.20;;;19.10;57.10;;;;;;5086527;28;20070;-43
2020/12/17 04:02:28;;;;;;;1.08;0.13;;;19.20;57.20;;;;;;5083078;28;20164;-49
2020/12/17 04:04:54;;;;;;;0.20;0.10;;;19.10;57.10;;;;;;5078949;28;20119;-43
2020/12/17 04:07:22;;;;;;;4.10;0.15;;;19.10;57.10;;;;;;5075417;28;20098;-44
2020/12/17 04:09:48;;;;;;;1.63;0.15;;;19.10;57.10;;;;;;5073579;28;20079;-45
2020/12/17 04:12:15;;;;;;;0.70;0.10;;;19.10;57.10;;;;;;5069687;28;20072;-43
2020/12/17 04:14:42;;;;;;;1.15;0.20;;;19.20;57.10;;;;;;5084441;28;20582;-48
2020/12/17 04:17:09;;;;;;;0.75;0.10;;;19.20;57.10;;;;;;5076936;28;20041;-43
2020/12/17 04:19:35;;;;;;;0.68;0.20;;;19.20;57.10;;;;;;5074793;28;20504;-45
2020/12/17 04:22:02;;;;;;;1.13;0.35;;;19.10;57.10;;;;;;5072683;28;20514;-43
2020/12/17 04:24:30;;;;;;;0.15;0.15;;;19.20;57.10;;;;;;5070430;28;20037;-43
2020/12/17 04:26:56;;;;;;;1.08;0.20;;;19.10;57.00;;;;;;5074173;28;20523;-43
2020/12/17 04:29:23;;;;;;;1.05;0.13;;;19.10;57.00;;;;;;5072377;28;20033;-43
2020/12/17 04:31:50;;;;;;;1.08;0.30;;;19.10;56.90;;;;;;5071892;28;20071;-43
2020/12/17 04:34:16;;;;;;;0.20;0.10;;;19.20;57.00;;;;;;5072485;28;20507;-53
2020/12/17 04:36:43;;;;;;;0.15;0.10;;;19.10;56.90;;;;;;5071062;28;20408;-46
2020/12/17 04:39:09;;;;;;;0.28;0.13;;;19.10;56.90;;;;;;5085641;28;20092;-43
2020/12/17 04:41:38;;;;;;;0.30;0.20;;;19.10;56.90;;;;;;5081793;28;20052;-44
2020/12/17 04:44:05;;;;;;;0.75;0.10;;;19.10;56.90;;;;;;5077679;28;20042;-44
2020/12/17 04:46:35;;;;;;;0.45;0.15;;;19.10;56.90;;;;;;5076139;28;20040;-47
2020/12/17 04:49:03;;;;;;;1.55;0.30;;;19.10;56.80;;;;;;5086876;28;20048;-46
2020/12/17 04:51:30;;;;;;;1.88;0.43;;;19.10;56.90;;;;;;5086422;28;20506;-43
2020/12/17 04:54:01;;;;;;;2.38;0.43;;;19.10;56.90;;;;;;5071185;28;20127;-45
2020/12/17 04:56:29;;;;;;;1.10;0.35;;;19.10;56.90;;;;;;5074780;28;20541;-52
2020/12/17 04:58:59;;;;;;;0.30;0.10;;;19.00;56.80;;;;;;5075556;28;20041;-44
2020/12/17 05:01:32;;;;;;;4.20;0.40;;;19.10;56.90;;;;;;5071929;28;20044;-46
2020/12/17 05:03:59;;;;;;;0.20;0.10;;;19.10;56.90;;;;;;5071956;28;20044;-45
2020/12/17 05:06:27;;;;;;;0.68;0.10;;;19.10;57.00;;;;;;5069633;28;20057;-43
2020/12/17 05:08:54;;;;;;;0.88;0.20;;;19.10;56.90;;;;;;5073672;28;20056;-44
2020/12/17 05:11:21;;;;;;;1.10;0.10;;;19.10;56.90;;;;;;5071481;28;20055;-46
2020/12/17 05:13:48;;;;;;;3.20;0.10;;;19.10;56.90;;;;;;5071598;28;20041;-47
2020/12/17 05:16:15;;;;;;;1.20;0.75;;;19.00;56.80;;;;;;5070310;28;20032;-43
2020/12/17 05:18:42;;;;;;;0.60;0.10;;;19.00;56.80;;;;;;5068076;28;20759;-43
2020/12/17 05:21:09;;;;;;;3.40;0.15;;;19.00;56.70;;;;;;5069252;28;20127;-48
2020/12/17 05:23:38;;;;;;;0.65;0.13;;;19.00;56.80;;;;;;5072211;28;20080;-49
2020/12/17 05:26:04;;;;;;;1.65;0.10;;;19.00;56.70;;;;;;5073607;28;20045;-57
2020/12/17 05:28:32;;;;;;;0.80;0.20;;;19.00;56.70;;;;;;5071802;28;20048;-46
2020/12/17 05:30:58;;;;;;;0.50;0.10;;;19.00;56.70;;;;;;5071802;28;20447;-46
2020/12/17 05:33:26;;;;;;;1.55;0.20;;;19.00;56.70;;;;;;5069198;28;20569;-46
2020/12/17 05:35:53;;;;;;;1.00;0.32;;;19.00;56.70;;;;;;5071067;28;20045;-48
2020/12/17 05:38:24;;;;;;;0.32;0.10;;;19.00;56.60;;;;;;5071806;28;20051;-43
2020/12/17 05:40:51;;;;;;;0.57;0.55;;;19.00;56.60;;;;;;5071093;28;20049;-46
2020/12/17 05:43:21;;;;;;;0.82;0.10;;;19.00;56.60;;;;;;5071753;28;20083;-43
2020/12/17 05:45:48;;;;;;;0.30;0.30;;;19.00;56.60;;;;;;5071588;28;20138;-43
2020/12/17 05:48:16;;;;;;;1.30;0.25;;;19.00;56.60;;;;;;5083678;28;20032;-55
2020/12/17 05:50:54;;;;;;;0.20;0.10;;;19.00;56.60;;;;;;5081875;28;20078;-45
2020/12/17 05:53:22;;;;;;;0.73;0.13;;;19.00;56.60;;;;;;5073919;28;20398;-44
2020/12/17 05:55:52;;;;;;;1.15;0.60;;;18.90;56.60;;;;;;5074329;28;20049;-46
2020/12/17 05:58:19;;;;;;;0.10;0.10;;;18.90;56.60;;;;;;5071515;28;20459;-46
2020/12/17 06:00:48;;;;;;;1.27;0.63;;;18.90;56.50;;;;;;5067649;28;20076;-43
2020/12/17 06:03:27;;;;;;;2.47;0.10;;;18.90;56.50;;;;;;5078275;28;20048;-43
2020/12/17 06:06:00;;;;;;;0.13;0.10;;;18.90;56.50;;;;;;5088273;28;20044;-43
2020/12/17 06:08:33;;;;;;;0.57;0.10;;;18.90;56.50;;;;;;5085252;28;20055;-47
2020/12/17 06:11:03;;;;;;;0.93;0.30;;;18.90;56.50;;;;;;5076520;28;20523;-43
2020/12/17 06:13:34;;;;;;;4.75;0.40;;;18.90;56.50;;;;;;5070960;28;20054;-43
2020/12/17 06:16:04;;;;;;;0.85;0.20;;;18.90;56.60;;;;;;5071295;28;20044;-45
2020/12/17 06:18:39;;;;;;;1.02;0.10;;;18.90;56.60;;;;;;5084493;28;20052;-43
2020/12/17 06:21:10;;;;;;;1.38;0.20;;;18.90;56.60;;;;;;5068927;28;20057;-46
2020/12/17 06:23:38;;;;;;;0.60;0.57;;;18.90;56.50;;;;;;5070912;28;20127;-47
2020/12/17 06:26:08;;;;;;;1.27;0.10;;;18.90;56.50;;;;;;5074016;28;20048;-45
2020/12/17 06:28:43;;;;;;;0.10;0.10;;;18.90;56.50;;;;;;5074483;28;20544;-45
2020/12/17 06:31:14;;;;;;;0.50;0.10;;;18.90;56.50;;;;;;5077175;28;20052;-45
2020/12/17 06:33:42;;;;;;;0.90;0.40;;;18.90;56.50;;;;;;5087252;28;20295;-44
2020/12/17 06:36:19;;;;;;;1.75;0.10;;;18.90;56.50;;;;;;5091735;28;20554;-43
2020/12/17 06:38:47;;;;;;;4.03;0.10;;;18.90;56.60;;;;;;5075641;28;20887;-46
2020/12/17 06:41:18;;;;;;;1.27;0.10;;;18.90;56.40;;;;;;5073530;28;20047;-51
2020/12/17 06:43:45;;;;;;;2.17;0.13;;;18.90;56.40;;;;;;5074543;28;20041;-47
2020/12/17 06:46:33;;;;;;;1.25;0.10;;;18.90;56.40;;;;;;5077309;28;20079;-50
2020/12/17 06:49:01;;;;;;;1.20;0.20;;;18.90;56.40;;;;;;5086221;28;20044;-43
2020/12/17 06:51:33;;;;;;;1.00;0.40;;;18.90;56.50;;;;;;5072482;28;20056;-44
2020/12/17 06:54:01;;;;;;;2.05;0.20;;;18.90;56.50;;;;;;5076125;28;20139;-48
2020/12/17 06:56:28;;;;;;;2.40;0.75;;;18.90;56.50;;;;;;5077324;28;20424;-43
2020/12/17 06:59:18;;;;;;;0.90;0.43;;;18.90;56.50;;;;;;5074259;28;20072;-43
2020/12/17 07:01:46;;;;;;;1.92;0.13;;;18.90;56.50;;;;;;5074466;28;20045;-43
2020/12/17 07:04:33;;;;;;;0.38;0.20;;;18.90;56.50;;;;;;5073701;28;20060;-43
2020/12/17 07:07:10;;;;;;;;;;;18.90;56.50;;;;;;5088437;28;20375;-45
2020/12/17 07:09:37;;;;;;;;;;;18.80;56.40;;;;;;5073728;28;19928;-46
2020/12/17 07:12:03;;;;;;;1.10;0.20;;;18.80;56.60;;;;;;5072394;28;20404;-44
2020/12/17 07:14:34;;;;;;;0.60;0.10;;;18.70;56.70;;;;;;5072981;28;20052;-44
2020/12/17 07:17:03;;;;;;;1.95;0.30;;;18.80;56.70;;;;;;5074122;28;20049;-52
2020/12/17 07:19:30;;;;;;;1.33;0.25;;;18.80;56.70;;;;;;5074030;28;20535;-42
2020/12/17 07:22:02;;;;;;;2.25;0.63;;;18.80;56.60;;;;;;5073622;28;20047;-44
2020/12/17 07:24:32;;;;;;;0.30;0.30;;;18.80;56.60;;;;;;5071578;28;20668;-46
2020/12/17 07:27:01;;;;;;;2.47;0.50;;;18.80;56.60;;;;;;5073958;28;20044;-45
2020/12/17 07:29:42;;;;;;;2.92;0.30;;;18.80;56.60;;;;;;5072519;28;20128;-49
2020/12/17 07:32:44;;;;;;;2.17;0.50;;;18.80;56.60;;;;;;5073828;28;20056;-43
2020/12/17 07:35:31;;;;;;;5.13;0.40;;;18.90;56.60;;;;;;5111045;27;20408;-43
2020/12/17 07:37:59;;;;;;;1.55;0.20;;;18.80;56.70;;;;;;5105614;28;20517;-44
2020/12/17 07:40:34;;;;;;;1.95;0.50;;;18.80;56.70;;;;;;5100967;28;20602;-43
2020/12/17 07:43:06;;;;;;;5.27;0.93;;;18.80;56.80;;;;;;5118334;28;20040;-47
2020/12/17 07:45:45;;;;;;;2.80;0.60;;;18.90;56.80;;;;;;5121165;28;20139;-43
2020/12/17 07:48:34;;;;;;;1.75;0.30;;;18.90;56.80;;;;;;5102449;28;20060;-45
2020/12/17 07:51:03;;;;;;;3.67;0.30;;;18.80;56.70;;;;;;5104794;28;20055;-43
2020/12/17 07:53:32;;;;;;;3.03;0.60;;;18.90;56.80;;;;;;5104956;28;20047;-46
2020/12/17 07:55:59;;;;;;;0.77;0.13;;;18.90;56.80;;;;;;5098054;28;20050;-46
2020/12/17 07:58:25;;;;;;;1.25;0.22;;;18.90;56.70;;;;;;5093341;28;20089;-46
2020/12/17 08:00:53;;;;;;;1.20;0.70;;;18.90;56.70;;;;;;5104336;28;20085;-44
2020/12/17 08:03:20;;;;;;;0.38;0.22;;;18.90;56.70;;;;;;5102783;28;20040;-44
2020/12/17 08:05:47;;;;;;;3.97;0.57;;;18.90;56.60;;;;;;5104726;28;20449;-46
2020/12/17 08:08:15;;;;;;;0.93;0.40;;;18.90;56.60;;;;;;5100056;28;20505;-45
2020/12/17 08:10:43;;;;;;;0.98;0.50;;;18.90;56.40;;;;;;5104472;28;20060;-50
2020/12/17 08:13:10;;;;;;;0.73;0.35;;;18.90;56.30;;;;;;5104777;28;20043;-43
2020/12/17 08:15:36;;;;;;;3.13;0.70;;;18.90;56.30;;;;;;5104864;28;20419;-46
2020/12/17 08:18:05;;;;;;;0.63;0.40;;;18.90;56.20;;;;;;5105850;28;20039;-44
2020/12/17 08:20:33;;;;;;;1.73;0.35;;;18.90;56.20;;;;;;5104255;28;20135;-47
2020/12/17 08:23:00;;;;;;;2.30;0.30;;;18.90;56.10;;;;;;5104439;28;20088;-47
2020/12/17 08:25:29;;;;;;;0.95;0.73;;;19.00;56.10;;;;;;5101532;28;20062;-44
2020/12/17 08:27:56;;;;;;;1.48;0.63;;;18.90;56.00;;;;;;5088405;28;20093;-43
2020/12/17 08:30:23;;;;;;;0.50;0.30;;;18.90;56.00;;;;;;5101711;28;20047;-44
2020/12/17 08:32:51;;;;;;;1.33;0.32;;;18.90;56.00;;;;;;5105082;28;20385;-47
2020/12/17 08:35:22;;;;;;;5.28;0.73;;;18.90;55.90;;;;;;5090940;28;20674;-44
2020/12/17 08:37:50;;;;;;;2.97;1.17;;;18.90;55.90;;;;;;5092532;28;20046;-45
2020/12/17 08:40:23;;;;;;;3.97;0.47;;;18.90;55.90;;;;;;5103922;28;20063;-43
2020/12/17 08:42:58;;;;;;;2.35;0.28;;;18.90;55.90;;;;;;5088627;28;20116;-45
2020/12/17 08:45:26;;;;;;;6.05;0.50;;;18.90;55.80;;;;;;5098774;28;20086;-44
2020/12/17 08:47:58;;;;;;;2.50;1.10;;;18.90;55.80;;;;;;5091005;28;20411;-44
2020/12/17 08:50:26;;;;;;;1.13;0.25;;;18.90;55.90;;;;;;5085731;28;20044;-44
2020/12/17 08:52:53;;;;;;;2.15;0.38;;;18.90;55.90;;;;;;5085969;28;20040;-44
2020/12/17 08:55:22;;;;;;;2.88;0.38;;;18.90;55.80;;;;;;5087461;28;20052;-44
2020/12/17 08:57:49;;;;;;;4.80;0.20;;;18.90;55.80;;;;;;5075011;28;20044;-46
2020/12/17 09:00:19;;;;;;;2.40;0.65;;;18.90;55.80;;;;;;5091110;28;20044;-52
2020/12/17 09:02:46;;;;;;;5.85;0.77;;;18.90;55.80;;;;;;5090324;28;20120;-43
2020/12/17 09:05:16;;;;;;;5.35;0.63;;;18.90;55.80;;;;;;5086732;28;20093;-43
2020/12/17 09:07:46;;;;;;;3.58;0.63;;;18.90;55.90;;;;;;5090191;28;20044;-45
2020/12/17 09:10:15;;;;;;;3.80;0.60;;;18.90;55.90;;;;;;5084907;28;20037;-47
2020/12/17 09:12:42;;;;;;;2.78;1.00;;;18.90;55.90;;;;;;5090247;28;20127;-44
2020/12/17 09:15:10;;;;;;;3.97;0.82;;;19.00;55.90;;;;;;5087155;28;20044;-46
2020/12/17 09:17:39;;;;;;;3.25;0.65;;;18.90;55.90;;;;;;5085104;28;20048;-54
2020/12/17 09:20:15;;;;;;;3.30;1.27;;;18.90;55.80;;;;;;5089512;28;20055;-47
2020/12/17 09:22:42;;;;;;;2.50;0.57;;;19.00;55.80;;;;;;5090134;28;20136;-46
2020/12/17 09:25:09;;;;;;;1.65;0.70;;;19.00;55.70;;;;;;5089951;28;20393;-47
2020/12/17 09:27:37;;;;;;;3.20;0.75;;;19.00;55.80;;;;;;5073424;28;20071;-45
2020/12/17 09:30:12;;;;;;;2.55;0.70;;;19.00;55.70;;;;;;5088226;28;20109;-49
2020/12/17 09:32:41;;;;;;;5.13;0.83;;;19.00;55.90;;;;;;5087689;28;20051;-51
2020/12/17 09:35:29;;;;;;;0.90;0.40;;;19.00;55.90;;;;;;5089100;28;20063;-52
2020/12/17 09:37:58;;;;;;;12.35;1.75;;;19.00;55.90;;;;;;5088757;28;20051;-52
2020/12/17 09:40:25;;;;;;;3.05;0.57;;;19.00;56.00;;;;;;5088746;28;20502;-44
2020/12/17 09:43:02;;;;;;;6.43;0.63;;;19.00;56.00;;;;;;5087928;28;20047;-46
2020/12/17 09:45:33;;;;;;;3.47;0.20;;;19.00;56.00;;;;;;5086672;28;20048;-44
2020/12/17 09:48:13;;;;;;;2.17;0.35;;;19.00;56.10;;;;;;5085638;28;20044;-46
2020/12/17 09:50:50;;;;;;;4.22;1.38;;;19.00;56.20;;;;;;5089609;28;20059;-43
2020/12/17 09:53:17;;;;;;;4.97;0.65;;;19.00;56.20;;;;;;5084891;28;20040;-45
2020/12/17 09:55:44;;;;;;;4.65;0.65;;;19.00;56.20;;;;;;5084061;28;20516;-45
2020/12/17 09:58:10;;;;;;;2.90;1.02;;;19.00;56.20;;;;;;5073345;28;20052;-47
2020/12/17 10:00:37;;;;;;;4.25;0.85;;;19.10;56.30;;;;;;5088723;28;20047;-47
2020/12/17 10:03:04;;;;;;;5.75;1.25;;;19.10;56.30;;;;;;5090095;28;20036;-47
2020/12/17 10:05:31;;;;;;;6.55;0.60;;;19.10;56.30;;;;;;5088769;28;20040;-47
2020/12/17 10:07:58;;;;;;;1.50;0.70;;;19.10;56.20;;;;;;5084633;28;20051;-43
2020/12/17 10:10:25;;;;;;;1.73;0.30;;;19.10;56.20;;;;;;5088114;28;20051;-44
2020/12/17 10:12:51;;;;;;;5.25;1.33;;;19.10;56.20;;;;;;5088956;28;20075;-43
2020/12/17 10:15:18;;;;;;;5.75;1.17;;;19.10;56.30;;;;;;5089065;28;20055;-46
2020/12/17 10:17:45;;;;;;;6.43;1.40;;;19.10;56.40;;;;;;5085435;28;20503;-44
2020/12/17 10:20:12;;;;;;;2.47;0.68;;;19.10;56.40;;;;;;5082954;28;20047;-44
2020/12/17 10:22:39;;;;;;;3.03;1.15;;;19.10;56.40;;;;;;5084160;28;20131;-48
2020/12/17 10:25:06;;;;;;;5.90;0.70;;;19.20;56.50;;;;;;5088909;28;20043;-48
2020/12/17 10:27:33;;;;;;;3.40;0.50;;;19.10;56.40;;;;;;5071171;28;20044;-43
2020/12/17 10:30:00;;;;;;;4.22;0.75;;;19.20;56.50;;;;;;5085178;28;20055;-44
2020/12/17 10:32:28;;;;;;;2.90;0.90;;;19.20;56.50;;;;;;5083800;28;20050;-45
2020/12/17 10:34:54;;;;;;;6.00;0.70;;;19.20;56.50;;;;;;5086704;28;20065;-43
2020/12/17 10:37:22;;;;;;;6.93;1.30;;;19.20;56.50;;;;;;5088290;28;20063;-48
2020/12/17 10:39:48;;;;;;;6.43;1.25;;;19.20;56.40;;;;;;5086715;28;20451;-46
2020/12/17 10:42:15;;;;;;;1.77;1.17;;;19.20;56.40;;;;;;5085223;28;20063;-46
2020/12/17 10:44:41;;;;;;;2.28;0.63;;;19.20;56.40;;;;;;5088437;28;20043;-46
2020/12/17 10:47:09;;;;;;;5.22;0.80;;;19.30;56.40;;;;;;5083790;28;20047;-44
2020/12/17 10:49:36;;;;;;;1.15;0.75;;;19.20;56.30;;;;;;5083571;28;20055;-54
2020/12/17 10:52:02;;;;;;;3.42;1.08;;;19.20;56.20;;;;;;5087938;28;20044;-51
2020/12/17 10:54:30;;;;;;;6.72;1.50;;;19.30;56.20;;;;;;5087256;28;20050;-49
2020/12/17 10:56:56;;;;;;;7.95;1.30;;;19.30;56.20;;;;;;5087717;28;20055;-57
2020/12/17 10:59:23;;;;;;;5.63;1.02;;;19.30;56.10;;;;;;5089364;28;20101;-49
2020/12/17 11:01:49;;;;;;;9.20;1.17;;;19.30;56.20;;;;;;5082014;28;20086;-44
2020/12/17 11:04:15;;;;;;;5.68;1.33;;;19.30;56.30;;;;;;5098745;28;20505;-44
2020/12/17 11:06:42;;;;;;;6.68;1.98;;;19.30;56.30;;;;;;5087810;28;20048;-44
2020/12/17 11:09:09;;;;;;;8.70;2.35;;;19.30;56.30;;;;;;5084560;28;20071;-43
2020/12/17 11:11:36;;;;;;;4.75;1.20;;;19.30;56.30;;;;;;5083122;28;20040;-44
2020/12/17 11:14:03;;;;;;;4.53;1.40;;;19.30;56.30;;;;;;5082738;28;20089;-44
2020/12/17 11:16:29;;;;;;;3.63;1.50;;;19.30;56.30;;;;;;5087509;28;20040;-44
2020/12/17 11:18:59;;;;;;;5.05;1.85;;;19.30;56.30;;;;;;5085685;28;20040;-44
2020/12/17 11:21:26;;;;;;;10.07;2.60;;;19.30;56.80;;;;;;5085145;28;20072;-44
2020/12/17 11:23:53;;;;;;;9.70;2.08;;;19.30;56.30;;;;;;5084177;28;20065;-43
2020/12/17 11:26:19;;;;;;;3.63;1.85;;;19.30;56.30;;;;;;5078708;28;20037;-45
2020/12/17 11:28:47;;;;;;;6.00;2.17;;;19.30;56.30;;;;;;5075236;28;20564;-44
2020/12/17 11:31:13;;;;;;;3.50;1.63;;;19.40;56.40;;;;;;5084325;28;20065;-51
2020/12/17 11:33:40;;;;;;;5.57;3.30;;;19.40;56.40;;;;;;5086533;28;20667;-47
2020/12/17 11:36:07;;;;;;;5.88;2.22;;;19.40;56.30;;;;;;5088347;28;20500;-43
2020/12/17 11:38:33;;;;;;;4.10;2.58;;;19.40;56.30;;;;;;5082729;28;20079;-42
2020/12/17 11:41:00;;;;;;;7.88;3.35;;;19.40;56.30;;;;;;5087402;28;20536;-43
2020/12/17 11:43:26;;;;;;;10.20;3.00;;;19.40;56.30;;;;;;5085629;28;20059;-43
2020/12/17 11:45:54;;;;;;;5.72;2.55;;;19.40;56.40;;;;;;5087605;28;20079;-44
2020/12/17 11:48:21;;;;;;;5.25;3.47;;;19.40;56.40;;;;;;5087446;28;20048;-43
2020/12/17 11:50:47;;;;;;;5.13;3.03;;;19.40;56.40;;;;;;5088526;28;20129;-43
2020/12/17 11:53:15;;;;;;;8.27;3.67;;;19.40;56.40;;;;;;5087973;28;20076;-42
2020/12/17 11:55:41;;;;;;;6.35;3.78;;;19.40;56.50;;;;;;5087699;28;20423;-45
2020/12/17 11:58:08;;;;;;;7.93;4.50;;;19.40;56.50;;;;;;5090457;28;20087;-45
2020/12/17 12:00:34;;;;;;;6.15;4.78;;;19.40;56.50;;;;;;5085515;28;20527;-46
2020/12/17 12:03:02;;;;;;;7.05;4.32;;;19.50;56.50;;;;;;5087782;28;20040;-46
2020/12/17 12:05:28;;;;;;;7.43;3.88;;;19.50;56.50;;;;;;5085904;28;20048;-48
2020/12/17 12:07:56;;;;;;;9.82;3.67;;;19.50;56.40;;;;;;5086422;28;20040;-48
2020/12/17 12:10:22;;;;;;;8.77;3.53;;;19.50;56.40;;;;;;5086033;28;20074;-47
2020/12/17 12:12:49;;;;;;;7.65;4.00;;;19.50;56.40;;;;;;5086135;28;20032;-46
2020/12/17 12:15:15;;;;;;;7.50;3.42;;;19.50;56.30;;;;;;5085290;28;20132;-54
2020/12/17 12:17:42;;;;;;;3.78;2.50;;;19.50;56.30;;;;;;5086363;28;20044;-47
2020/12/17 12:20:10;;;;;;;5.85;3.58;;;19.50;56.60;;;;;;5085865;28;20200;-52
2020/12/17 12:22:36;;;;;;;2.67;2.13;;;19.50;56.40;;;;;;5089225;28;20410;-48
2020/12/17 12:25:03;;;;;;;6.00;3.13;;;19.60;56.40;;;;;;5090075;28;20072;-46
2020/12/17 12:27:29;;;;;;;5.45;2.65;;;19.60;56.30;;;;;;5090759;28;20388;-47
2020/12/17 12:29:56;;;;;;;4.95;3.10;;;19.60;56.20;;;;;;5088171;28;20055;-48
2020/12/17 12:32:23;;;;;;;5.55;2.60;;;19.60;56.10;;;;;;5088649;28;20040;-47
2020/12/17 12:34:49;;;;;;;2.45;1.92;;;19.60;56.00;;;;;;5087888;28;20056;-49
2020/12/17 12:37:17;;;;;;;10.13;3.13;;;19.70;56.00;;;;;;5090004;28;20044;-46
2020/12/17 12:39:44;;;;;;;5.80;2.75;;;19.70;56.00;;;;;;5088449;28;20082;-47
2020/12/17 12:42:10;;;;;;;4.68;1.90;;;19.70;55.90;;;;;;5089822;28;20036;-46
2020/12/17 12:44:37;;;;;;;2.60;2.05;;;19.70;55.80;;;;;;5088236;28;20458;-44
2020/12/17 12:47:03;;;;;;;5.78;1.98;;;19.70;55.70;;;;;;5088857;28;20044;-44
2020/12/17 12:49:30;;;;;;;4.05;1.98;;;19.70;55.60;;;;;;5087872;28;20052;-43
2020/12/17 12:51:57;;;;;;;9.18;2.58;;;19.70;55.50;;;;;;5089871;28;20161;-43
2020/12/17 12:54:24;;;;;;;7.35;3.10;;;19.70;55.50;;;;;;5089257;28;20051;-47